sensor_id;sensor_type;location;lat;lon;timestamp;P1;durP1;ratioP1;P2;durP2;ratioP2
3995;SDS011;2012;49.794;9.722;2023-04-20T00:00:01;8.33;;;4.10;;
3995;SDS011;2012;49.794;9.722;2023-04-20T00:02:38;6.83;;;3.83;;
3995;SDS011;2012;49.794;9.722;2023-04-20T00:05:05;8.77;;;4.30;;
3995;SDS011;2012;49.794;9.722;2023-04-20T00:07:33;11.43;;;4.00;;
3995;SDS011;2012;49.794;9.722;2023-04-20T00:10:01;7.33;;;4.27;;
3995;SDS011;2012;49.794;9.722;2023-04-20T00:12:29;5.20;;;3.60;;
3995;SDS011;2012;49.794;9.722;2023-04-20T00:14:55;6.07;;;3.67;;
3995;SDS011;2012;49.794;9.722;2023-04-20T00:17:22;6.67;;;4.00;;
3995;SDS011;2012;49.794;9.722;2023-04-20T00:19:49;7.70;;;4.37;;
3995;SDS011;2012;49.794;9.722;2023-04-20T00:22:16;5.90;;;3.80;;
3995;SDS011;2012;49.794;9.722;2023-04-20T00:24:43;7.70;;;4.17;;
3995;SDS011;2012;49.794;9.722;2023-04-20T00:27:10;4.57;;;3.77;;
3995;SDS011;2012;49.794;9.722;2023-04-20T00:29:37;7.37;;;4.07;;
3995;SDS011;2012;49.794;9.722;2023-04-20T00:32:04;3.70;;;3.30;;
3995;SDS011;2012;49.794;9.722;2023-04-20T00:34:31;7.43;;;3.73;;
3995;SDS011;2012;49.794;9.722;2023-04-20T00:36:59;6.60;;;3.90;;
3995;SDS011;2012;49.794;9.722;2023-04-20T00:39:26;5.07;;;3.83;;
3995;SDS011;2012;49.794;9.722;2023-04-20T00:41:53;6.00;;;3.87;;
3995;SDS011;2012;49.794;9.722;2023-04-20T00:44:20;6.90;;;4.10;;
3995;SDS011;2012;49.794;9.722;2023-04-20T00:46:46;4.97;;;3.50;;
3995;SDS011;2012;49.794;9.722;2023-04-20T00:49:13;5.00;;;4.23;;
3995;SDS011;2012;49.794;9.722;2023-04-20T00:51:41;6.80;;;4.30;;
3995;SDS011;2012;49.794;9.722;2023-04-20T00:54:08;3.50;;;3.20;;
3995;SDS011;2012;49.794;9.722;2023-04-20T00:56:35;4.50;;;3.90;;
3995;SDS011;2012;49.794;9.722;2023-04-20T00:59:05;6.90;;;4.30;;
3995;SDS011;2012;49.794;9.722;2023-04-20T01:01:33;4.40;;;3.57;;
3995;SDS011;2012;49.794;9.722;2023-04-20T01:04:00;7.90;;;3.80;;
3995;SDS011;2012;49.794;9.722;2023-04-20T01:06:27;6.83;;;3.40;;
3995;SDS011;2012;49.794;9.722;2023-04-20T01:08:55;9.10;;;3.60;;
3995;SDS011;2012;49.794;9.722;2023-04-20T01:11:22;4.10;;;3.27;;
3995;SDS011;2012;49.794;9.722;2023-04-20T01:13:49;12.17;;;4.07;;
3995;SDS011;2012;49.794;9.722;2023-04-20T01:16:16;5.00;;;3.17;;
3995;SDS011;2012;49.794;9.722;2023-04-20T01:18:46;5.50;;;2.93;;
3995;SDS011;2012;49.794;9.722;2023-04-20T01:21:15;4.37;;;3.67;;
3995;SDS011;2012;49.794;9.722;2023-04-20T01:23:43;4.17;;;3.50;;
3995;SDS011;2012;49.794;9.722;2023-04-20T01:26:12;7.10;;;4.00;;
3995;SDS011;2012;49.794;9.722;2023-04-20T01:28:41;5.27;;;3.57;;
3995;SDS011;2012;49.794;9.722;2023-04-20T01:31:09;3.97;;;3.50;;
3995;SDS011;2012;49.794;9.722;2023-04-20T01:33:37;3.97;;;3.57;;
3995;SDS011;2012;49.794;9.722;2023-04-20T01:36:05;7.20;;;3.80;;
3995;SDS011;2012;49.794;9.722;2023-04-20T01:38:33;4.00;;;3.60;;
3995;SDS011;2012;49.794;9.722;2023-04-20T01:41:01;3.97;;;3.57;;
3995;SDS011;2012;49.794;9.722;2023-04-20T01:43:32;5.40;;;4.10;;
3995;SDS011;2012;49.794;9.722;2023-04-20T01:46:01;3.70;;;3.40;;
3995;SDS011;2012;49.794;9.722;2023-04-20T01:48:27;8.40;;;4.03;;
3995;SDS011;2012;49.794;9.722;2023-04-20T01:50:54;7.30;;;3.90;;
3995;SDS011;2012;49.794;9.722;2023-04-20T01:53:21;6.07;;;4.47;;
3995;SDS011;2012;49.794;9.722;2023-04-20T01:55:49;13.63;;;4.20;;
3995;SDS011;2012;49.794;9.722;2023-04-20T01:58:16;4.93;;;3.93;;
3995;SDS011;2012;49.794;9.722;2023-04-20T02:00:43;6.83;;;3.70;;
3995;SDS011;2012;49.794;9.722;2023-04-20T02:03:10;7.90;;;5.03;;
3995;SDS011;2012;49.794;9.722;2023-04-20T02:05:37;7.27;;;4.83;;
3995;SDS011;2012;49.794;9.722;2023-04-20T02:08:04;7.20;;;4.40;;
3995;SDS011;2012;49.794;9.722;2023-04-20T02:10:31;8.50;;;5.07;;
3995;SDS011;2012;49.794;9.722;2023-04-20T02:12:58;5.60;;;4.20;;
3995;SDS011;2012;49.794;9.722;2023-04-20T02:15:24;6.97;;;4.83;;
3995;SDS011;2012;49.794;9.722;2023-04-20T02:17:51;7.47;;;4.00;;
3995;SDS011;2012;49.794;9.722;2023-04-20T02:20:19;5.47;;;4.27;;
3995;SDS011;2012;49.794;9.722;2023-04-20T02:22:46;7.77;;;4.53;;
3995;SDS011;2012;49.794;9.722;2023-04-20T02:25:13;8.07;;;4.03;;
3995;SDS011;2012;49.794;9.722;2023-04-20T02:27:41;7.60;;;4.60;;
3995;SDS011;2012;49.794;9.722;2023-04-20T02:30:10;8.20;;;4.50;;
3995;SDS011;2012;49.794;9.722;2023-04-20T02:32:39;4.40;;;3.50;;
3995;SDS011;2012;49.794;9.722;2023-04-20T02:35:07;6.43;;;4.40;;
3995;SDS011;2012;49.794;9.722;2023-04-20T02:37:34;8.63;;;4.20;;
3995;SDS011;2012;49.794;9.722;2023-04-20T02:40:02;4.93;;;4.43;;
3995;SDS011;2012;49.794;9.722;2023-04-20T02:42:30;5.77;;;4.63;;
3995;SDS011;2012;49.794;9.722;2023-04-20T02:44:58;9.17;;;4.20;;
3995;SDS011;2012;49.794;9.722;2023-04-20T02:47:25;10.80;;;3.90;;
3995;SDS011;2012;49.794;9.722;2023-04-20T02:49:53;4.97;;;3.60;;
3995;SDS011;2012;49.794;9.722;2023-04-20T02:52:20;4.37;;;3.80;;
3995;SDS011;2012;49.794;9.722;2023-04-20T02:54:47;10.80;;;4.90;;
3995;SDS011;2012;49.794;9.722;2023-04-20T02:57:13;10.40;;;3.87;;
3995;SDS011;2012;49.794;9.722;2023-04-20T02:59:40;7.67;;;3.70;;
3995;SDS011;2012;49.794;9.722;2023-04-20T03:02:31;5.87;;;4.03;;
3995;SDS011;2012;49.794;9.722;2023-04-20T03:05:00;7.40;;;4.60;;
3995;SDS011;2012;49.794;9.722;2023-04-20T03:07:37;6.60;;;4.40;;
3995;SDS011;2012;49.794;9.722;2023-04-20T03:10:04;6.30;;;4.80;;
3995;SDS011;2012;49.794;9.722;2023-04-20T03:12:52;6.57;;;4.00;;
3995;SDS011;2012;49.794;9.722;2023-04-20T03:15:32;7.23;;;4.30;;
3995;SDS011;2012;49.794;9.722;2023-04-20T03:18:24;10.27;;;4.60;;
3995;SDS011;2012;49.794;9.722;2023-04-20T03:20:52;7.50;;;4.93;;
3995;SDS011;2012;49.794;9.722;2023-04-20T03:23:19;6.60;;;4.90;;
3995;SDS011;2012;49.794;9.722;2023-04-20T03:25:48;4.40;;;3.93;;
3995;SDS011;2012;49.794;9.722;2023-04-20T03:28:35;5.57;;;4.93;;
3995;SDS011;2012;49.794;9.722;2023-04-20T03:31:01;6.60;;;4.57;;
3995;SDS011;2012;49.794;9.722;2023-04-20T03:33:29;6.10;;;4.57;;
3995;SDS011;2012;49.794;9.722;2023-04-20T03:35:56;6.00;;;4.37;;
3995;SDS011;2012;49.794;9.722;2023-04-20T03:38:23;7.20;;;5.20;;
3995;SDS011;2012;49.794;9.722;2023-04-20T03:40:51;5.70;;;5.13;;
3995;SDS011;2012;49.794;9.722;2023-04-20T03:43:18;5.23;;;4.27;;
3995;SDS011;2012;49.794;9.722;2023-04-20T03:45:45;6.20;;;4.83;;
3995;SDS011;2012;49.794;9.722;2023-04-20T03:48:15;6.43;;;5.00;;
3995;SDS011;2012;49.794;9.722;2023-04-20T03:50:42;7.90;;;4.47;;
3995;SDS011;2012;49.794;9.722;2023-04-20T03:53:09;8.33;;;5.23;;
3995;SDS011;2012;49.794;9.722;2023-04-20T03:55:36;10.47;;;5.50;;
3995;SDS011;2012;49.794;9.722;2023-04-20T03:58:06;6.57;;;4.23;;
3995;SDS011;2012;49.794;9.722;2023-04-20T04:00:45;7.07;;;5.27;;
3995;SDS011;2012;49.794;9.722;2023-04-20T04:03:13;8.80;;;4.93;;
3995;SDS011;2012;49.794;9.722;2023-04-20T04:05:40;5.27;;;4.70;;
3995;SDS011;2012;49.794;9.722;2023-04-20T04:08:07;5.33;;;4.10;;
3995;SDS011;2012;49.794;9.722;2023-04-20T04:10:34;11.43;;;5.40;;
3995;SDS011;2012;49.794;9.722;2023-04-20T04:13:01;8.00;;;5.80;;
3995;SDS011;2012;49.794;9.722;2023-04-20T04:15:29;6.90;;;5.53;;
3995;SDS011;2012;49.794;9.722;2023-04-20T04:18:01;8.13;;;5.13;;
3995;SDS011;2012;49.794;9.722;2023-04-20T04:20:30;12.63;;;6.77;;
3995;SDS011;2012;49.794;9.722;2023-04-20T04:22:58;10.50;;;5.17;;
3995;SDS011;2012;49.794;9.722;2023-04-20T04:25:38;5.83;;;5.23;;
3995;SDS011;2012;49.794;9.722;2023-04-20T04:28:10;10.80;;;5.30;;
3995;SDS011;2012;49.794;9.722;2023-04-20T04:30:45;5.73;;;5.13;;
3995;SDS011;2012;49.794;9.722;2023-04-20T04:33:13;7.13;;;6.27;;
3995;SDS011;2012;49.794;9.722;2023-04-20T04:35:43;9.20;;;6.70;;
3995;SDS011;2012;49.794;9.722;2023-04-20T04:38:11;13.27;;;7.33;;
3995;SDS011;2012;49.794;9.722;2023-04-20T04:40:42;12.83;;;8.50;;
3995;SDS011;2012;49.794;9.722;2023-04-20T04:43:10;15.90;;;9.20;;
3995;SDS011;2012;49.794;9.722;2023-04-20T04:45:43;16.50;;;8.70;;
3995;SDS011;2012;49.794;9.722;2023-04-20T04:48:10;8.67;;;6.77;;
3995;SDS011;2012;49.794;9.722;2023-04-20T04:50:38;10.53;;;6.70;;
3995;SDS011;2012;49.794;9.722;2023-04-20T04:53:05;15.33;;;7.07;;
3995;SDS011;2012;49.794;9.722;2023-04-20T04:55:32;10.27;;;6.80;;
3995;SDS011;2012;49.794;9.722;2023-04-20T04:57:59;15.23;;;5.80;;
3995;SDS011;2012;49.794;9.722;2023-04-20T05:00:26;6.80;;;5.17;;
3995;SDS011;2012;49.794;9.722;2023-04-20T05:02:54;15.10;;;6.00;;
3995;SDS011;2012;49.794;9.722;2023-04-20T05:05:21;10.30;;;7.10;;
3995;SDS011;2012;49.794;9.722;2023-04-20T05:07:48;10.17;;;6.20;;
3995;SDS011;2012;49.794;9.722;2023-04-20T05:10:15;7.33;;;5.40;;
3995;SDS011;2012;49.794;9.722;2023-04-20T05:12:42;14.60;;;6.23;;
3995;SDS011;2012;49.794;9.722;2023-04-20T05:15:09;7.77;;;5.73;;
3995;SDS011;2012;49.794;9.722;2023-04-20T05:17:36;7.97;;;6.17;;
3995;SDS011;2012;49.794;9.722;2023-04-20T05:20:03;8.30;;;6.13;;
3995;SDS011;2012;49.794;9.722;2023-04-20T05:22:31;10.13;;;6.17;;
3995;SDS011;2012;49.794;9.722;2023-04-20T05:24:58;14.93;;;6.10;;
3995;SDS011;2012;49.794;9.722;2023-04-20T05:27:25;6.93;;;5.40;;
3995;SDS011;2012;49.794;9.722;2023-04-20T05:29:52;14.63;;;6.80;;
3995;SDS011;2012;49.794;9.722;2023-04-20T05:32:19;14.43;;;7.50;;
3995;SDS011;2012;49.794;9.722;2023-04-20T05:34:45;10.97;;;6.83;;
3995;SDS011;2012;49.794;9.722;2023-04-20T05:37:13;8.43;;;6.63;;
3995;SDS011;2012;49.794;9.722;2023-04-20T05:39:40;19.00;;;5.87;;
3995;SDS011;2012;49.794;9.722;2023-04-20T05:42:07;12.20;;;8.23;;
3995;SDS011;2012;49.794;9.722;2023-04-20T05:44:34;10.73;;;7.47;;
3995;SDS011;2012;49.794;9.722;2023-04-20T05:47:01;9.37;;;6.23;;
3995;SDS011;2012;49.794;9.722;2023-04-20T05:49:31;7.27;;;6.53;;
3995;SDS011;2012;49.794;9.722;2023-04-20T05:51:58;13.73;;;6.80;;
3995;SDS011;2012;49.794;9.722;2023-04-20T05:54:26;9.87;;;6.43;;
3995;SDS011;2012;49.794;9.722;2023-04-20T05:56:54;11.00;;;7.10;;
3995;SDS011;2012;49.794;9.722;2023-04-20T05:59:20;8.57;;;7.33;;
3995;SDS011;2012;49.794;9.722;2023-04-20T06:01:47;16.70;;;8.33;;
3995;SDS011;2012;49.794;9.722;2023-04-20T06:04:14;10.97;;;6.83;;
3995;SDS011;2012;49.794;9.722;2023-04-20T06:06:42;13.60;;;6.60;;
3995;SDS011;2012;49.794;9.722;2023-04-20T06:09:08;9.20;;;7.20;;
3995;SDS011;2012;49.794;9.722;2023-04-20T06:11:36;8.50;;;6.57;;
3995;SDS011;2012;49.794;9.722;2023-04-20T06:14:02;10.27;;;6.80;;
3995;SDS011;2012;49.794;9.722;2023-04-20T06:16:29;12.20;;;6.60;;
3995;SDS011;2012;49.794;9.722;2023-04-20T06:18:56;11.17;;;6.70;;
3995;SDS011;2012;49.794;9.722;2023-04-20T06:21:23;12.93;;;6.57;;
3995;SDS011;2012;49.794;9.722;2023-04-20T06:23:52;13.53;;;6.83;;
3995;SDS011;2012;49.794;9.722;2023-04-20T06:26:19;7.80;;;6.57;;
3995;SDS011;2012;49.794;9.722;2023-04-20T06:28:46;13.10;;;6.80;;
3995;SDS011;2012;49.794;9.722;2023-04-20T06:31:13;7.70;;;6.90;;
3995;SDS011;2012;49.794;9.722;2023-04-20T06:33:40;14.07;;;7.33;;
3995;SDS011;2012;49.794;9.722;2023-04-20T06:36:07;11.43;;;6.43;;
3995;SDS011;2012;49.794;9.722;2023-04-20T06:38:34;10.00;;;6.60;;
3995;SDS011;2012;49.794;9.722;2023-04-20T06:41:01;12.33;;;5.60;;
3995;SDS011;2012;49.794;9.722;2023-04-20T06:43:28;10.00;;;7.43;;
3995;SDS011;2012;49.794;9.722;2023-04-20T06:45:55;11.20;;;6.80;;
3995;SDS011;2012;49.794;9.722;2023-04-20T06:48:22;12.07;;;6.83;;
3995;SDS011;2012;49.794;9.722;2023-04-20T06:50:58;7.60;;;6.23;;
3995;SDS011;2012;49.794;9.722;2023-04-20T06:53:25;10.77;;;6.33;;
3995;SDS011;2012;49.794;9.722;2023-04-20T06:55:54;8.07;;;6.87;;
3995;SDS011;2012;49.794;9.722;2023-04-20T06:58:21;8.87;;;6.53;;
3995;SDS011;2012;49.794;9.722;2023-04-20T07:00:48;9.33;;;6.43;;
3995;SDS011;2012;49.794;9.722;2023-04-20T07:03:15;14.50;;;6.83;;
3995;SDS011;2012;49.794;9.722;2023-04-20T07:05:44;9.87;;;6.60;;
3995;SDS011;2012;49.794;9.722;2023-04-20T07:08:11;6.43;;;5.70;;
3995;SDS011;2012;49.794;9.722;2023-04-20T07:10:41;7.90;;;6.27;;
3995;SDS011;2012;49.794;9.722;2023-04-20T07:13:07;9.20;;;6.73;;
3995;SDS011;2012;49.794;9.722;2023-04-20T07:15:34;7.37;;;5.63;;
3995;SDS011;2012;49.794;9.722;2023-04-20T07:18:01;8.70;;;6.80;;
3995;SDS011;2012;49.794;9.722;2023-04-20T07:20:28;9.73;;;6.97;;
3995;SDS011;2012;49.794;9.722;2023-04-20T07:22:55;7.67;;;6.30;;
3995;SDS011;2012;49.794;9.722;2023-04-20T07:25:21;9.37;;;6.60;;
3995;SDS011;2012;49.794;9.722;2023-04-20T07:27:49;16.20;;;6.47;;
3995;SDS011;2012;49.794;9.722;2023-04-20T07:30:16;10.87;;;6.83;;
3995;SDS011;2012;49.794;9.722;2023-04-20T07:32:43;14.40;;;6.80;;
3995;SDS011;2012;49.794;9.722;2023-04-20T07:35:10;9.60;;;7.03;;
3995;SDS011;2012;49.794;9.722;2023-04-20T07:37:37;12.30;;;6.60;;
3995;SDS011;2012;49.794;9.722;2023-04-20T07:40:04;9.17;;;7.37;;
3995;SDS011;2012;49.794;9.722;2023-04-20T07:42:33;9.93;;;6.83;;
3995;SDS011;2012;49.794;9.722;2023-04-20T07:45:05;10.10;;;7.30;;
3995;SDS011;2012;49.794;9.722;2023-04-20T07:47:33;8.70;;;6.60;;
3995;SDS011;2012;49.794;9.722;2023-04-20T07:50:00;8.80;;;5.90;;
3995;SDS011;2012;49.794;9.722;2023-04-20T07:52:27;8.60;;;6.43;;
3995;SDS011;2012;49.794;9.722;2023-04-20T07:54:54;8.40;;;6.50;;
3995;SDS011;2012;49.794;9.722;2023-04-20T07:57:25;9.30;;;5.90;;
3995;SDS011;2012;49.794;9.722;2023-04-20T07:59:53;14.30;;;6.20;;
3995;SDS011;2012;49.794;9.722;2023-04-20T08:02:20;9.63;;;6.40;;
3995;SDS011;2012;49.794;9.722;2023-04-20T08:04:47;6.67;;;5.80;;
3995;SDS011;2012;49.794;9.722;2023-04-20T08:07:15;7.50;;;6.70;;
3995;SDS011;2012;49.794;9.722;2023-04-20T08:09:42;10.07;;;6.53;;
3995;SDS011;2012;49.794;9.722;2023-04-20T08:12:09;8.80;;;6.17;;
3995;SDS011;2012;49.794;9.722;2023-04-20T08:14:36;6.53;;;5.80;;
3995;SDS011;2012;49.794;9.722;2023-04-20T08:17:03;6.07;;;5.43;;
3995;SDS011;2012;49.794;9.722;2023-04-20T08:19:30;8.57;;;5.47;;
3995;SDS011;2012;49.794;9.722;2023-04-20T08:21:57;6.37;;;5.50;;
3995;SDS011;2012;49.794;9.722;2023-04-20T08:24:26;12.57;;;6.40;;
3995;SDS011;2012;49.794;9.722;2023-04-20T08:26:53;16.23;;;5.67;;
3995;SDS011;2012;49.794;9.722;2023-04-20T08:29:20;11.37;;;6.10;;
3995;SDS011;2012;49.794;9.722;2023-04-20T08:31:47;8.90;;;6.07;;
3995;SDS011;2012;49.794;9.722;2023-04-20T08:34:16;11.03;;;6.70;;
3995;SDS011;2012;49.794;9.722;2023-04-20T08:36:43;8.33;;;6.87;;
3995;SDS011;2012;49.794;9.722;2023-04-20T08:39:11;13.33;;;6.70;;
3995;SDS011;2012;49.794;9.722;2023-04-20T08:41:40;7.20;;;6.10;;
3995;SDS011;2012;49.794;9.722;2023-04-20T08:44:07;6.73;;;6.10;;
3995;SDS011;2012;49.794;9.722;2023-04-20T08:46:34;10.83;;;6.17;;
3995;SDS011;2012;49.794;9.722;2023-04-20T08:49:01;5.83;;;5.23;;
3995;SDS011;2012;49.794;9.722;2023-04-20T08:51:29;7.70;;;6.90;;
3995;SDS011;2012;49.794;9.722;2023-04-20T08:54:02;9.00;;;6.70;;
3995;SDS011;2012;49.794;9.722;2023-04-20T08:56:34;7.30;;;6.60;;
3995;SDS011;2012;49.794;9.722;2023-04-20T08:59:06;9.40;;;6.10;;
3995;SDS011;2012;49.794;9.722;2023-04-20T09:01:36;10.23;;;5.80;;
3995;SDS011;2012;49.794;9.722;2023-04-20T09:06:48;7.63;;;6.17;;
3995;SDS011;2012;49.794;9.722;2023-04-20T09:09:18;9.30;;;5.43;;
3995;SDS011;2012;49.794;9.722;2023-04-20T09:11:47;8.63;;;6.90;;
3995;SDS011;2012;49.794;9.722;2023-04-20T09:14:24;8.43;;;6.00;;
3995;SDS011;2012;49.794;9.722;2023-04-20T09:16:51;11.03;;;5.60;;
3995;SDS011;2012;49.794;9.722;2023-04-20T09:19:28;8.07;;;6.13;;
3995;SDS011;2012;49.794;9.722;2023-04-20T09:21:58;8.67;;;6.50;;
3995;SDS011;2012;49.794;9.722;2023-04-20T09:24:32;7.30;;;5.77;;
3995;SDS011;2012;49.794;9.722;2023-04-20T09:27:01;8.03;;;6.50;;
3995;SDS011;2012;49.794;9.722;2023-04-20T09:29:28;6.00;;;5.30;;
3995;SDS011;2012;49.794;9.722;2023-04-20T09:31:55;6.93;;;5.40;;
3995;SDS011;2012;49.794;9.722;2023-04-20T09:34:22;8.83;;;5.93;;
3995;SDS011;2012;49.794;9.722;2023-04-20T09:36:50;7.87;;;5.10;;
3995;SDS011;2012;49.794;9.722;2023-04-20T09:39:19;8.47;;;5.27;;
3995;SDS011;2012;49.794;9.722;2023-04-20T09:41:49;6.97;;;5.20;;
3995;SDS011;2012;49.794;9.722;2023-04-20T09:44:17;10.00;;;5.37;;
3995;SDS011;2012;49.794;9.722;2023-04-20T09:46:45;12.40;;;5.27;;
3995;SDS011;2012;49.794;9.722;2023-04-20T09:49:12;7.30;;;5.77;;
3995;SDS011;2012;49.794;9.722;2023-04-20T09:51:41;11.70;;;5.40;;
3995;SDS011;2012;49.794;9.722;2023-04-20T09:54:12;4.97;;;4.33;;
3995;SDS011;2012;49.794;9.722;2023-04-20T09:56:40;6.43;;;5.27;;
3995;SDS011;2012;49.794;9.722;2023-04-20T09:59:07;6.83;;;5.50;;
3995;SDS011;2012;49.794;9.722;2023-04-20T10:01:34;8.60;;;5.20;;
3995;SDS011;2012;49.794;9.722;2023-04-20T10:04:06;10.27;;;5.40;;
3995;SDS011;2012;49.794;9.722;2023-04-20T10:06:36;9.17;;;5.80;;
3995;SDS011;2012;49.794;9.722;2023-04-20T10:09:04;6.80;;;5.90;;
3995;SDS011;2012;49.794;9.722;2023-04-20T10:11:35;6.57;;;5.40;;
3995;SDS011;2012;49.794;9.722;2023-04-20T10:14:24;9.27;;;5.43;;
3995;SDS011;2012;49.794;9.722;2023-04-20T10:17:05;8.00;;;5.20;;
3995;SDS011;2012;49.794;9.722;2023-04-20T10:22:11;8.27;;;5.10;;
3995;SDS011;2012;49.794;9.722;2023-04-20T10:24:50;6.87;;;6.10;;
3995;SDS011;2012;49.794;9.722;2023-04-20T10:27:17;12.60;;;5.47;;
3995;SDS011;2012;49.794;9.722;2023-04-20T10:29:45;7.90;;;5.47;;
3995;SDS011;2012;49.794;9.722;2023-04-20T10:32:26;7.57;;;5.20;;
3995;SDS011;2012;49.794;9.722;2023-04-20T10:35:01;5.83;;;4.63;;
3995;SDS011;2012;49.794;9.722;2023-04-20T10:37:37;5.77;;;5.00;;
3995;SDS011;2012;49.794;9.722;2023-04-20T10:40:16;6.20;;;5.60;;
3995;SDS011;2012;49.794;9.722;2023-04-20T10:42:52;8.73;;;5.20;;
3995;SDS011;2012;49.794;9.722;2023-04-20T10:45:19;5.33;;;4.83;;
3995;SDS011;2012;49.794;9.722;2023-04-20T10:47:47;7.87;;;5.47;;
3995;SDS011;2012;49.794;9.722;2023-04-20T10:50:14;7.57;;;4.70;;
3995;SDS011;2012;49.794;9.722;2023-04-20T10:52:42;10.57;;;5.17;;
3995;SDS011;2012;49.794;9.722;2023-04-20T10:55:19;8.10;;;4.47;;
3995;SDS011;2012;49.794;9.722;2023-04-20T10:57:50;5.10;;;4.60;;
3995;SDS011;2012;49.794;9.722;2023-04-20T11:00:22;11.73;;;4.67;;
3995;SDS011;2012;49.794;9.722;2023-04-20T11:02:52;17.80;;;5.50;;
3995;SDS011;2012;49.794;9.722;2023-04-20T11:05:21;33.97;;;5.73;;
3995;SDS011;2012;49.794;9.722;2023-04-20T11:07:55;20.87;;;5.03;;
3995;SDS011;2012;49.794;9.722;2023-04-20T11:10:24;5.13;;;3.83;;
3995;SDS011;2012;49.794;9.722;2023-04-20T11:13:06;9.00;;;4.43;;
3995;SDS011;2012;49.794;9.722;2023-04-20T11:15:33;6.80;;;4.20;;
3995;SDS011;2012;49.794;9.722;2023-04-20T11:18:07;6.70;;;4.57;;
3995;SDS011;2012;49.794;9.722;2023-04-20T11:20:35;4.40;;;3.60;;
3995;SDS011;2012;49.794;9.722;2023-04-20T11:23:03;4.60;;;4.10;;
3995;SDS011;2012;49.794;9.722;2023-04-20T11:25:31;6.00;;;4.27;;
3995;SDS011;2012;49.794;9.722;2023-04-20T11:28:07;3.57;;;3.27;;
3995;SDS011;2012;49.794;9.722;2023-04-20T11:30:40;8.43;;;3.73;;
3995;SDS011;2012;49.794;9.722;2023-04-20T11:33:08;4.87;;;3.23;;
3995;SDS011;2012;49.794;9.722;2023-04-20T11:35:39;10.97;;;3.20;;
3995;SDS011;2012;49.794;9.722;2023-04-20T11:38:07;8.93;;;3.60;;
3995;SDS011;2012;49.794;9.722;2023-04-20T11:40:34;2.93;;;2.73;;
3995;SDS011;2012;49.794;9.722;2023-04-20T11:43:01;5.63;;;3.63;;
3995;SDS011;2012;49.794;9.722;2023-04-20T11:45:30;5.03;;;2.90;;
3995;SDS011;2012;49.794;9.722;2023-04-20T11:48:02;3.90;;;2.67;;
3995;SDS011;2012;49.794;9.722;2023-04-20T11:50:30;4.77;;;3.10;;
3995;SDS011;2012;49.794;9.722;2023-04-20T11:52:57;4.70;;;2.97;;
3995;SDS011;2012;49.794;9.722;2023-04-20T11:55:24;3.77;;;2.70;;
3995;SDS011;2012;49.794;9.722;2023-04-20T11:57:51;3.13;;;2.83;;
3995;SDS011;2012;49.794;9.722;2023-04-20T12:00:17;3.13;;;2.63;;
3995;SDS011;2012;49.794;9.722;2023-04-20T12:02:45;3.20;;;2.63;;
3995;SDS011;2012;49.794;9.722;2023-04-20T12:05:12;4.70;;;2.80;;
3995;SDS011;2012;49.794;9.722;2023-04-20T12:07:39;6.17;;;3.30;;
3995;SDS011;2012;49.794;9.722;2023-04-20T12:10:06;3.30;;;2.93;;
3995;SDS011;2012;49.794;9.722;2023-04-20T12:12:34;5.80;;;3.10;;
3995;SDS011;2012;49.794;9.722;2023-04-20T12:15:02;4.47;;;2.70;;
3995;SDS011;2012;49.794;9.722;2023-04-20T12:17:29;5.40;;;3.07;;
3995;SDS011;2012;49.794;9.722;2023-04-20T12:19:55;8.20;;;3.77;;
3995;SDS011;2012;49.794;9.722;2023-04-20T12:22:23;6.63;;;3.20;;
3995;SDS011;2012;49.794;9.722;2023-04-20T12:24:50;4.40;;;3.10;;
3995;SDS011;2012;49.794;9.722;2023-04-20T12:27:16;7.40;;;3.77;;
3995;SDS011;2012;49.794;9.722;2023-04-20T12:29:43;7.17;;;3.43;;
3995;SDS011;2012;49.794;9.722;2023-04-20T12:32:10;5.40;;;3.40;;
3995;SDS011;2012;49.794;9.722;2023-04-20T12:34:37;5.80;;;3.90;;
3995;SDS011;2012;49.794;9.722;2023-04-20T12:37:04;3.40;;;3.10;;
3995;SDS011;2012;49.794;9.722;2023-04-20T12:39:31;3.73;;;3.40;;
3995;SDS011;2012;49.794;9.722;2023-04-20T12:41:57;6.57;;;4.60;;
3995;SDS011;2012;49.794;9.722;2023-04-20T12:44:24;5.97;;;4.37;;
3995;SDS011;2012;49.794;9.722;2023-04-20T12:46:51;5.50;;;4.10;;
3995;SDS011;2012;49.794;9.722;2023-04-20T12:49:18;5.10;;;3.73;;
3995;SDS011;2012;49.794;9.722;2023-04-20T12:51:45;5.10;;;3.57;;
3995;SDS011;2012;49.794;9.722;2023-04-20T12:54:12;4.17;;;3.73;;
3995;SDS011;2012;49.794;9.722;2023-04-20T12:56:39;4.53;;;3.63;;
3995;SDS011;2012;49.794;9.722;2023-04-20T12:59:05;9.90;;;3.17;;
3995;SDS011;2012;49.794;9.722;2023-04-20T13:01:32;5.50;;;2.53;;
3995;SDS011;2012;49.794;9.722;2023-04-20T13:03:59;6.53;;;3.63;;
3995;SDS011;2012;49.794;9.722;2023-04-20T13:06:27;13.73;;;3.27;;
3995;SDS011;2012;49.794;9.722;2023-04-20T13:08:53;7.57;;;4.80;;
3995;SDS011;2012;49.794;9.722;2023-04-20T13:11:20;10.93;;;4.40;;
3995;SDS011;2012;49.794;9.722;2023-04-20T13:13:47;12.23;;;4.10;;
3995;SDS011;2012;49.794;9.722;2023-04-20T13:16:14;8.13;;;4.60;;
3995;SDS011;2012;49.794;9.722;2023-04-20T13:18:41;10.70;;;4.30;;
3995;SDS011;2012;49.794;9.722;2023-04-20T13:21:08;9.43;;;4.83;;
3995;SDS011;2012;49.794;9.722;2023-04-20T13:23:35;6.70;;;5.20;;
3995;SDS011;2012;49.794;9.722;2023-04-20T13:26:03;8.80;;;5.13;;
3995;SDS011;2012;49.794;9.722;2023-04-20T13:28:31;6.53;;;4.90;;
3995;SDS011;2012;49.794;9.722;2023-04-20T13:30:58;16.13;;;6.80;;
3995;SDS011;2012;49.794;9.722;2023-04-20T13:33:25;10.57;;;6.00;;
3995;SDS011;2012;49.794;9.722;2023-04-20T13:35:52;10.37;;;4.87;;
3995;SDS011;2012;49.794;9.722;2023-04-20T13:38:19;9.70;;;5.63;;
3995;SDS011;2012;49.794;9.722;2023-04-20T13:40:45;14.80;;;7.23;;
3995;SDS011;2012;49.794;9.722;2023-04-20T13:43:13;6.43;;;5.30;;
3995;SDS011;2012;49.794;9.722;2023-04-20T13:45:40;8.20;;;5.53;;
3995;SDS011;2012;49.794;9.722;2023-04-20T13:48:07;15.53;;;6.43;;
3995;SDS011;2012;49.794;9.722;2023-04-20T13:50:34;7.30;;;4.50;;
3995;SDS011;2012;49.794;9.722;2023-04-20T13:53:01;8.03;;;4.40;;
3995;SDS011;2012;49.794;9.722;2023-04-20T13:55:28;7.70;;;5.30;;
3995;SDS011;2012;49.794;9.722;2023-04-20T13:57:56;9.63;;;5.30;;
3995;SDS011;2012;49.794;9.722;2023-04-20T14:00:23;9.03;;;5.57;;
3995;SDS011;2012;49.794;9.722;2023-04-20T14:02:51;10.37;;;5.33;;
3995;SDS011;2012;49.794;9.722;2023-04-20T14:05:18;7.70;;;4.47;;
3995;SDS011;2012;49.794;9.722;2023-04-20T14:07:45;6.87;;;5.00;;
3995;SDS011;2012;49.794;9.722;2023-04-20T14:10:12;7.10;;;5.37;;
3995;SDS011;2012;49.794;9.722;2023-04-20T14:12:39;6.43;;;4.97;;
3995;SDS011;2012;49.794;9.722;2023-04-20T14:15:06;8.50;;;4.47;;
3995;SDS011;2012;49.794;9.722;2023-04-20T14:17:33;7.43;;;4.87;;
3995;SDS011;2012;49.794;9.722;2023-04-20T14:20:00;8.73;;;5.63;;
3995;SDS011;2012;49.794;9.722;2023-04-20T14:22:27;5.30;;;4.80;;
3995;SDS011;2012;49.794;9.722;2023-04-20T14:25:06;6.77;;;4.77;;
3995;SDS011;2012;49.794;9.722;2023-04-20T14:27:33;10.00;;;4.80;;
3995;SDS011;2012;49.794;9.722;2023-04-20T14:30:00;6.00;;;4.73;;
3995;SDS011;2012;49.794;9.722;2023-04-20T14:32:28;6.70;;;4.10;;
3995;SDS011;2012;49.794;9.722;2023-04-20T14:34:56;5.90;;;4.53;;
3995;SDS011;2012;49.794;9.722;2023-04-20T14:37:23;5.30;;;4.50;;
3995;SDS011;2012;49.794;9.722;2023-04-20T14:39:52;6.30;;;4.50;;
3995;SDS011;2012;49.794;9.722;2023-04-20T14:42:19;5.53;;;4.30;;
3995;SDS011;2012;49.794;9.722;2023-04-20T14:44:46;5.53;;;4.33;;
3995;SDS011;2012;49.794;9.722;2023-04-20T14:47:14;6.80;;;4.60;;
3995;SDS011;2012;49.794;9.722;2023-04-20T14:49:41;5.60;;;4.83;;
3995;SDS011;2012;49.794;9.722;2023-04-20T14:52:09;4.60;;;4.20;;
3995;SDS011;2012;49.794;9.722;2023-04-20T14:54:36;4.30;;;4.00;;
3995;SDS011;2012;49.794;9.722;2023-04-20T14:57:03;5.17;;;4.70;;
3995;SDS011;2012;49.794;9.722;2023-04-20T14:59:30;6.10;;;4.53;;
3995;SDS011;2012;49.794;9.722;2023-04-20T15:01:59;4.93;;;4.43;;
3995;SDS011;2012;49.794;9.722;2023-04-20T15:04:28;7.27;;;3.90;;
3995;SDS011;2012;49.794;9.722;2023-04-20T15:06:55;4.40;;;4.00;;
3995;SDS011;2012;49.794;9.722;2023-04-20T15:09:22;6.37;;;4.30;;
3995;SDS011;2012;49.794;9.722;2023-04-20T15:11:49;5.60;;;4.80;;
3995;SDS011;2012;49.794;9.722;2023-04-20T15:14:16;5.17;;;4.67;;
3995;SDS011;2012;49.794;9.722;2023-04-20T15:16:43;4.50;;;4.10;;
3995;SDS011;2012;49.794;9.722;2023-04-20T15:19:10;5.27;;;4.77;;
3995;SDS011;2012;49.794;9.722;2023-04-20T15:21:37;5.50;;;5.00;;
3995;SDS011;2012;49.794;9.722;2023-04-20T15:24:04;8.13;;;5.30;;